sensor_id;sensor_type;location;lat;lon;timestamp;P1;durP1;ratioP1;P2;durP2;ratioP2
66633;SDS011;53546;52.184;5.596;2023-02-15T00:01:32;10.85;;;8.15;;
66633;SDS011;53546;52.184;5.596;2023-02-15T00:03:58;10.85;;;7.97;;
66633;SDS011;53546;52.184;5.596;2023-02-15T00:06:24;11.10;;;8.27;;
66633;SDS011;53546;52.184;5.596;2023-02-15T00:08:49;10.30;;;7.50;;
66633;SDS011;53546;52.184;5.596;2023-02-15T00:11:16;9.63;;;7.75;;
66633;SDS011;53546;52.184;5.596;2023-02-15T00:14:03;8.50;;;7.10;;
66633;SDS011;53546;52.184;5.596;2023-02-15T00:16:29;11.45;;;7.97;;
66633;SDS011;53546;52.184;5.596;2023-02-15T00:18:54;10.30;;;7.60;;
66633;SDS011;53546;52.184;5.596;2023-02-15T00:21:20;9.98;;;7.72;;
66633;SDS011;53546;52.184;5.596;2023-02-15T00:23:45;10.18;;;7.70;;
66633;SDS011;53546;52.184;5.596;2023-02-15T00:26:11;11.48;;;7.47;;
66633;SDS011;53546;52.184;5.596;2023-02-15T00:28:37;9.38;;;7.43;;
66633;SDS011;53546;52.184;5.596;2023-02-15T00:31:06;13.25;;;7.40;;
66633;SDS011;53546;52.184;5.596;2023-02-15T00:33:33;9.18;;;7.65;;
66633;SDS011;53546;52.184;5.596;2023-02-15T00:35:59;9.05;;;7.03;;
66633;SDS011;53546;52.184;5.596;2023-02-15T00:38:26;8.88;;;6.85;;
66633;SDS011;53546;52.184;5.596;2023-02-15T00:40:53;10.13;;;7.47;;
66633;SDS011;53546;52.184;5.596;2023-02-15T00:43:19;9.55;;;7.07;;
66633;SDS011;53546;52.184;5.596;2023-02-15T00:45:45;11.23;;;7.10;;
66633;SDS011;53546;52.184;5.596;2023-02-15T00:48:11;9.10;;;7.40;;
66633;SDS011;53546;52.184;5.596;2023-02-15T00:50:36;9.02;;;6.78;;
66633;SDS011;53546;52.184;5.596;2023-02-15T00:53:01;8.68;;;6.82;;
66633;SDS011;53546;52.184;5.596;2023-02-15T00:55:27;9.05;;;6.63;;
66633;SDS011;53546;52.184;5.596;2023-02-15T00:57:52;9.50;;;6.80;;
66633;SDS011;53546;52.184;5.596;2023-02-15T01:00:18;10.55;;;6.97;;
66633;SDS011;53546;52.184;5.596;2023-02-15T01:02:43;10.85;;;7.15;;
66633;SDS011;53546;52.184;5.596;2023-02-15T01:05:08;8.25;;;6.90;;
66633;SDS011;53546;52.184;5.596;2023-02-15T01:07:34;9.70;;;6.72;;
66633;SDS011;53546;52.184;5.596;2023-02-15T01:09:59;9.45;;;6.93;;
66633;SDS011;53546;52.184;5.596;2023-02-15T01:12:25;8.30;;;6.55;;
66633;SDS011;53546;52.184;5.596;2023-02-15T01:14:50;9.00;;;6.22;;
66633;SDS011;53546;52.184;5.596;2023-02-15T01:17:15;9.77;;;6.85;;
66633;SDS011;53546;52.184;5.596;2023-02-15T01:19:41;9.40;;;6.47;;
66633;SDS011;53546;52.184;5.596;2023-02-15T01:22:06;10.75;;;6.35;;
66633;SDS011;53546;52.184;5.596;2023-02-15T01:24:31;8.48;;;6.45;;
66633;SDS011;53546;52.184;5.596;2023-02-15T01:26:57;10.30;;;6.38;;
66633;SDS011;53546;52.184;5.596;2023-02-15T01:29:22;8.38;;;6.53;;
66633;SDS011;53546;52.184;5.596;2023-02-15T01:31:48;9.57;;;6.53;;
66633;SDS011;53546;52.184;5.596;2023-02-15T01:34:13;8.55;;;6.50;;
66633;SDS011;53546;52.184;5.596;2023-02-15T01:36:38;8.25;;;6.22;;
66633;SDS011;53546;52.184;5.596;2023-02-15T01:39:04;8.93;;;6.47;;
66633;SDS011;53546;52.184;5.596;2023-02-15T01:41:29;7.55;;;6.07;;
66633;SDS011;53546;52.184;5.596;2023-02-15T01:43:59;9.02;;;6.40;;
66633;SDS011;53546;52.184;5.596;2023-02-15T01:46:35;8.80;;;6.53;;
66633;SDS011;53546;52.184;5.596;2023-02-15T01:49:09;8.13;;;6.38;;
66633;SDS011;53546;52.184;5.596;2023-02-15T01:54:05;8.38;;;6.35;;
66633;SDS011;53546;52.184;5.596;2023-02-15T01:56:52;7.32;;;6.18;;
66633;SDS011;53546;52.184;5.596;2023-02-15T01:59:23;7.95;;;6.28;;
66633;SDS011;53546;52.184;5.596;2023-02-15T02:01:49;8.15;;;6.50;;
66633;SDS011;53546;52.184;5.596;2023-02-15T02:04:17;8.82;;;6.45;;
66633;SDS011;53546;52.184;5.596;2023-02-15T02:06:45;8.05;;;6.85;;
66633;SDS011;53546;52.184;5.596;2023-02-15T02:09:12;8.30;;;6.40;;
66633;SDS011;53546;52.184;5.596;2023-02-15T02:11:38;9.63;;;6.63;;
66633;SDS011;53546;52.184;5.596;2023-02-15T02:14:04;8.95;;;6.70;;
66633;SDS011;53546;52.184;5.596;2023-02-15T02:19:18;7.78;;;6.03;;
66633;SDS011;53546;52.184;5.596;2023-02-15T02:24:46;8.05;;;6.22;;
66633;SDS011;53546;52.184;5.596;2023-02-15T02:27:33;7.72;;;6.20;;
66633;SDS011;53546;52.184;5.596;2023-02-15T02:40:48;7.95;;;6.00;;
66633;SDS011;53546;52.184;5.596;2023-02-15T02:43:25;7.28;;;5.72;;
66633;SDS011;53546;52.184;5.596;2023-02-15T02:46:02;7.25;;;5.32;;
66633;SDS011;53546;52.184;5.596;2023-02-15T02:48:32;7.43;;;5.97;;
66633;SDS011;53546;52.184;5.596;2023-02-15T02:50:58;6.03;;;5.25;;
66633;SDS011;53546;52.184;5.596;2023-02-15T02:53:23;7.65;;;5.38;;
66633;SDS011;53546;52.184;5.596;2023-02-15T03:01:13;6.50;;;5.18;;
66633;SDS011;53546;52.184;5.596;2023-02-15T03:03:52;7.63;;;5.25;;
66633;SDS011;53546;52.184;5.596;2023-02-15T03:06:32;7.43;;;5.18;;
66633;SDS011;53546;52.184;5.596;2023-02-15T03:09:12;6.82;;;5.32;;
66633;SDS011;53546;52.184;5.596;2023-02-15T03:11:46;6.60;;;5.05;;
66633;SDS011;53546;52.184;5.596;2023-02-15T03:14:14;7.85;;;5.25;;
66633;SDS011;53546;52.184;5.596;2023-02-15T03:16:40;10.25;;;5.10;;
66633;SDS011;53546;52.184;5.596;2023-02-15T03:19:12;5.97;;;4.88;;
66633;SDS011;53546;52.184;5.596;2023-02-15T03:21:48;6.40;;;4.70;;
66633;SDS011;53546;52.184;5.596;2023-02-15T03:24:32;6.15;;;4.63;;
66633;SDS011;53546;52.184;5.596;2023-02-15T03:27:00;10.60;;;5.38;;
66633;SDS011;53546;52.184;5.596;2023-02-15T03:29:32;5.40;;;4.20;;
66633;SDS011;53546;52.184;5.596;2023-02-15T03:31:59;6.80;;;4.88;;
66633;SDS011;53546;52.184;5.596;2023-02-15T03:34:26;6.30;;;5.32;;
66633;SDS011;53546;52.184;5.596;2023-02-15T03:36:54;8.07;;;4.30;;
66633;SDS011;53546;52.184;5.596;2023-02-15T03:39:45;5.75;;;4.20;;
66633;SDS011;53546;52.184;5.596;2023-02-15T03:47:31;8.48;;;4.47;;
66633;SDS011;53546;52.184;5.596;2023-02-15T03:52:54;6.72;;;4.13;;
66633;SDS011;53546;52.184;5.596;2023-02-15T03:55:21;7.15;;;4.97;;
66633;SDS011;53546;52.184;5.596;2023-02-15T03:57:46;4.28;;;3.88;;
66633;SDS011;53546;52.184;5.596;2023-02-15T04:00:30;6.35;;;4.00;;
66633;SDS011;53546;52.184;5.596;2023-02-15T04:03:31;5.07;;;4.20;;
66633;SDS011;53546;52.184;5.596;2023-02-15T04:05:58;5.00;;;3.78;;
66633;SDS011;53546;52.184;5.596;2023-02-15T04:08:26;7.35;;;4.22;;
66633;SDS011;53546;52.184;5.596;2023-02-15T04:11:11;9.43;;;4.30;;
66633;SDS011;53546;52.184;5.596;2023-02-15T04:13:36;6.53;;;4.18;;
66633;SDS011;53546;52.184;5.596;2023-02-15T04:16:02;5.35;;;3.72;;
66633;SDS011;53546;52.184;5.596;2023-02-15T04:18:34;6.30;;;4.20;;
66633;SDS011;53546;52.184;5.596;2023-02-15T04:21:22;4.35;;;3.67;;
66633;SDS011;53546;52.184;5.596;2023-02-15T04:24:07;6.10;;;4.32;;
66633;SDS011;53546;52.184;5.596;2023-02-15T04:26:51;6.32;;;3.38;;
66633;SDS011;53546;52.184;5.596;2023-02-15T04:29:21;4.38;;;3.85;;
66633;SDS011;53546;52.184;5.596;2023-02-15T04:31:47;5.00;;;3.78;;
66633;SDS011;53546;52.184;5.596;2023-02-15T04:34:13;4.63;;;3.38;;
66633;SDS011;53546;52.184;5.596;2023-02-15T04:36:39;4.50;;;3.55;;
66633;SDS011;53546;52.184;5.596;2023-02-15T04:39:05;4.35;;;3.42;;
66633;SDS011;53546;52.184;5.596;2023-02-15T04:41:31;3.78;;;3.35;;
66633;SDS011;53546;52.184;5.596;2023-02-15T04:43:56;4.53;;;3.90;;
66633;SDS011;53546;52.184;5.596;2023-02-15T04:46:22;6.13;;;3.83;;
66633;SDS011;53546;52.184;5.596;2023-02-15T04:48:47;5.82;;;4.40;;
66633;SDS011;53546;52.184;5.596;2023-02-15T04:51:13;8.32;;;4.40;;
66633;SDS011;53546;52.184;5.596;2023-02-15T04:53:38;4.25;;;3.50;;
66633;SDS011;53546;52.184;5.596;2023-02-15T04:56:04;4.72;;;3.75;;
66633;SDS011;53546;52.184;5.596;2023-02-15T04:58:29;7.65;;;4.22;;
66633;SDS011;53546;52.184;5.596;2023-02-15T05:00:55;14.90;;;4.10;;
66633;SDS011;53546;52.184;5.596;2023-02-15T05:03:21;4.88;;;3.50;;
66633;SDS011;53546;52.184;5.596;2023-02-15T05:05:47;5.38;;;3.78;;
66633;SDS011;53546;52.184;5.596;2023-02-15T05:08:12;4.75;;;3.55;;
66633;SDS011;53546;52.184;5.596;2023-02-15T05:10:38;4.45;;;3.40;;
66633;SDS011;53546;52.184;5.596;2023-02-15T05:13:04;6.30;;;3.47;;
66633;SDS011;53546;52.184;5.596;2023-02-15T05:15:29;4.90;;;3.78;;
66633;SDS011;53546;52.184;5.596;2023-02-15T05:17:55;6.10;;;3.90;;
66633;SDS011;53546;52.184;5.596;2023-02-15T05:20:20;7.45;;;3.83;;
66633;SDS011;53546;52.184;5.596;2023-02-15T05:22:45;4.57;;;3.40;;
66633;SDS011;53546;52.184;5.596;2023-02-15T05:25:11;4.28;;;3.20;;
66633;SDS011;53546;52.184;5.596;2023-02-15T05:27:55;7.07;;;3.80;;
66633;SDS011;53546;52.184;5.596;2023-02-15T05:30:38;5.78;;;3.70;;
66633;SDS011;53546;52.184;5.596;2023-02-15T05:33:05;5.07;;;3.60;;
66633;SDS011;53546;52.184;5.596;2023-02-15T05:35:31;9.10;;;3.67;;
66633;SDS011;53546;52.184;5.596;2023-02-15T05:37:57;8.10;;;3.88;;
66633;SDS011;53546;52.184;5.596;2023-02-15T05:40:22;6.40;;;3.65;;
66633;SDS011;53546;52.184;5.596;2023-02-15T05:42:48;7.07;;;3.20;;
66633;SDS011;53546;52.184;5.596;2023-02-15T05:45:13;15.30;;;6.07;;
66633;SDS011;53546;52.184;5.596;2023-02-15T05:47:40;15.35;;;5.30;;
66633;SDS011;53546;52.184;5.596;2023-02-15T05:50:05;10.73;;;4.90;;
66633;SDS011;53546;52.184;5.596;2023-02-15T05:52:31;10.40;;;4.60;;
66633;SDS011;53546;52.184;5.596;2023-02-15T05:54:57;17.08;;;4.05;;
66633;SDS011;53546;52.184;5.596;2023-02-15T05:57:23;12.73;;;4.10;;
66633;SDS011;53546;52.184;5.596;2023-02-15T05:59:48;10.07;;;4.05;;
66633;SDS011;53546;52.184;5.596;2023-02-15T06:02:13;8.63;;;4.22;;
66633;SDS011;53546;52.184;5.596;2023-02-15T06:04:39;10.30;;;4.43;;
66633;SDS011;53546;52.184;5.596;2023-02-15T06:07:04;13.35;;;5.30;;
66633;SDS011;53546;52.184;5.596;2023-02-15T06:09:29;12.73;;;5.05;;
66633;SDS011;53546;52.184;5.596;2023-02-15T06:11:55;20.50;;;6.50;;
66633;SDS011;53546;52.184;5.596;2023-02-15T06:14:20;23.20;;;7.05;;
66633;SDS011;53546;52.184;5.596;2023-02-15T06:16:46;23.08;;;7.03;;
66633;SDS011;53546;52.184;5.596;2023-02-15T06:19:11;27.65;;;7.63;;
66633;SDS011;53546;52.184;5.596;2023-02-15T06:21:36;26.70;;;8.52;;
66633;SDS011;53546;52.184;5.596;2023-02-15T06:24:02;24.73;;;7.60;;
66633;SDS011;53546;52.184;5.596;2023-02-15T06:26:27;23.17;;;8.07;;
66633;SDS011;53546;52.184;5.596;2023-02-15T06:28:53;19.88;;;7.30;;
66633;SDS011;53546;52.184;5.596;2023-02-15T06:31:18;24.85;;;7.60;;
66633;SDS011;53546;52.184;5.596;2023-02-15T06:33:44;17.65;;;7.68;;
66633;SDS011;53546;52.184;5.596;2023-02-15T06:36:09;18.83;;;7.47;;
66633;SDS011;53546;52.184;5.596;2023-02-15T06:38:34;19.15;;;7.28;;
66633;SDS011;53546;52.184;5.596;2023-02-15T06:41:00;22.35;;;6.32;;
66633;SDS011;53546;52.184;5.596;2023-02-15T06:43:25;20.90;;;6.95;;
66633;SDS011;53546;52.184;5.596;2023-02-15T06:45:51;17.27;;;6.22;;
66633;SDS011;53546;52.184;5.596;2023-02-15T06:48:16;15.20;;;5.95;;
66633;SDS011;53546;52.184;5.596;2023-02-15T06:50:41;20.38;;;7.32;;
66633;SDS011;53546;52.184;5.596;2023-02-15T06:53:07;18.98;;;7.22;;
66633;SDS011;53546;52.184;5.596;2023-02-15T06:55:32;14.98;;;6.65;;
66633;SDS011;53546;52.184;5.596;2023-02-15T06:57:57;17.42;;;7.40;;
66633;SDS011;53546;52.184;5.596;2023-02-15T07:00:23;13.90;;;6.82;;
66633;SDS011;53546;52.184;5.596;2023-02-15T07:02:55;18.58;;;6.05;;
66633;SDS011;53546;52.184;5.596;2023-02-15T07:07:47;12.63;;;6.00;;
66633;SDS011;53546;52.184;5.596;2023-02-15T07:10:13;17.80;;;6.10;;
66633;SDS011;53546;52.184;5.596;2023-02-15T07:12:38;13.15;;;5.88;;
66633;SDS011;53546;52.184;5.596;2023-02-15T07:15:08;12.85;;;5.68;;
66633;SDS011;53546;52.184;5.596;2023-02-15T07:17:34;12.05;;;5.55;;
66633;SDS011;53546;52.184;5.596;2023-02-15T07:20:00;13.38;;;5.75;;
66633;SDS011;53546;52.184;5.596;2023-02-15T07:22:25;11.85;;;5.28;;
66633;SDS011;53546;52.184;5.596;2023-02-15T07:24:51;12.55;;;5.78;;
66633;SDS011;53546;52.184;5.596;2023-02-15T07:27:19;13.82;;;5.53;;
66633;SDS011;53546;52.184;5.596;2023-02-15T07:29:44;7.60;;;4.60;;
66633;SDS011;53546;52.184;5.596;2023-02-15T07:32:10;10.25;;;5.35;;
66633;SDS011;53546;52.184;5.596;2023-02-15T07:34:35;8.20;;;4.95;;
66633;SDS011;53546;52.184;5.596;2023-02-15T07:37:01;10.40;;;4.80;;
66633;SDS011;53546;52.184;5.596;2023-02-15T07:39:26;8.02;;;4.53;;
66633;SDS011;53546;52.184;5.596;2023-02-15T07:41:52;7.40;;;4.82;;
66633;SDS011;53546;52.184;5.596;2023-02-15T07:44:17;24.42;;;5.55;;
66633;SDS011;53546;52.184;5.596;2023-02-15T07:46:43;10.02;;;4.70;;
66633;SDS011;53546;52.184;5.596;2023-02-15T07:49:08;10.13;;;4.80;;
66633;SDS011;53546;52.184;5.596;2023-02-15T07:51:33;7.63;;;4.90;;
66633;SDS011;53546;52.184;5.596;2023-02-15T07:53:59;8.23;;;5.10;;
66633;SDS011;53546;52.184;5.596;2023-02-15T07:56:24;7.55;;;4.72;;
66633;SDS011;53546;52.184;5.596;2023-02-15T07:58:50;7.03;;;4.82;;
66633;SDS011;53546;52.184;5.596;2023-02-15T08:01:15;8.20;;;4.65;;
66633;SDS011;53546;52.184;5.596;2023-02-15T08:03:41;8.95;;;4.90;;
66633;SDS011;53546;52.184;5.596;2023-02-15T08:06:07;9.35;;;4.70;;
66633;SDS011;53546;52.184;5.596;2023-02-15T08:08:35;7.20;;;4.47;;
66633;SDS011;53546;52.184;5.596;2023-02-15T08:11:14;6.22;;;4.50;;
66633;SDS011;53546;52.184;5.596;2023-02-15T08:14:07;7.32;;;5.28;;
66633;SDS011;53546;52.184;5.596;2023-02-15T08:16:42;6.13;;;4.55;;
66633;SDS011;53546;52.184;5.596;2023-02-15T08:21:42;8.05;;;5.25;;
66633;SDS011;53546;52.184;5.596;2023-02-15T08:24:09;7.88;;;5.70;;
66633;SDS011;53546;52.184;5.596;2023-02-15T08:26:35;6.45;;;5.05;;
66633;SDS011;53546;52.184;5.596;2023-02-15T08:29:02;9.10;;;5.90;;
66633;SDS011;53546;52.184;5.596;2023-02-15T08:31:28;7.22;;;5.68;;
66633;SDS011;53546;52.184;5.596;2023-02-15T08:33:54;8.82;;;5.40;;
66633;SDS011;53546;52.184;5.596;2023-02-15T08:36:21;9.02;;;5.13;;
66633;SDS011;53546;52.184;5.596;2023-02-15T08:38:48;6.82;;;4.95;;
66633;SDS011;53546;52.184;5.596;2023-02-15T08:41:21;8.38;;;6.18;;
66633;SDS011;53546;52.184;5.596;2023-02-15T08:43:48;7.00;;;5.40;;
66633;SDS011;53546;52.184;5.596;2023-02-15T08:46:16;12.60;;;6.15;;
66633;SDS011;53546;52.184;5.596;2023-02-15T08:48:42;7.72;;;5.97;;
66633;SDS011;53546;52.184;5.596;2023-02-15T08:53:35;8.05;;;5.80;;
66633;SDS011;53546;52.184;5.596;2023-02-15T08:56:05;9.93;;;5.50;;
66633;SDS011;53546;52.184;5.596;2023-02-15T08:58:31;7.20;;;5.72;;
66633;SDS011;53546;52.184;5.596;2023-02-15T09:00:56;7.75;;;5.72;;
66633;SDS011;53546;52.184;5.596;2023-02-15T09:03:22;8.77;;;5.40;;
66633;SDS011;53546;52.184;5.596;2023-02-15T09:05:48;6.65;;;5.40;;
66633;SDS011;53546;52.184;5.596;2023-02-15T09:08:14;7.68;;;5.70;;
66633;SDS011;53546;52.184;5.596;2023-02-15T09:10:40;6.75;;;5.45;;
66633;SDS011;53546;52.184;5.596;2023-02-15T09:13:05;7.97;;;6.10;;
66633;SDS011;53546;52.184;5.596;2023-02-15T09:15:30;9.45;;;6.22;;
66633;SDS011;53546;52.184;5.596;2023-02-15T09:17:56;7.90;;;5.45;;
66633;SDS011;53546;52.184;5.596;2023-02-15T09:20:24;6.80;;;5.60;;
66633;SDS011;53546;52.184;5.596;2023-02-15T09:22:51;8.73;;;5.97;;
66633;SDS011;53546;52.184;5.596;2023-02-15T09:25:16;9.70;;;6.40;;
66633;SDS011;53546;52.184;5.596;2023-02-15T09:27:42;7.95;;;6.18;;
66633;SDS011;53546;52.184;5.596;2023-02-15T09:30:08;6.60;;;5.35;;
66633;SDS011;53546;52.184;5.596;2023-02-15T09:32:34;6.53;;;5.38;;
66633;SDS011;53546;52.184;5.596;2023-02-15T09:34:59;7.43;;;5.43;;
66633;SDS011;53546;52.184;5.596;2023-02-15T09:37:24;8.57;;;5.68;;
66633;SDS011;53546;52.184;5.596;2023-02-15T09:39:50;9.02;;;6.30;;
66633;SDS011;53546;52.184;5.596;2023-02-15T09:52:24;6.90;;;5.68;;
66633;SDS011;53546;52.184;5.596;2023-02-15T10:01:15;7.20;;;5.82;;
66633;SDS011;53546;52.184;5.596;2023-02-15T10:06:42;8.60;;;6.60;;
66633;SDS011;53546;52.184;5.596;2023-02-15T10:33:43;7.77;;;6.03;;
66633;SDS011;53546;52.184;5.596;2023-02-15T10:39:02;9.20;;;6.30;;
66633;SDS011;53546;52.184;5.596;2023-02-15T10:58:11;7.95;;;6.18;;
66633;SDS011;53546;52.184;5.596;2023-02-15T11:00:52;8.55;;;6.15;;
66633;SDS011;53546;52.184;5.596;2023-02-15T11:06:08;8.30;;;5.97;;
66633;SDS011;53546;52.184;5.596;2023-02-15T11:08:40;8.43;;;5.95;;
66633;SDS011;53546;52.184;5.596;2023-02-15T11:11:13;9.02;;;6.68;;
66633;SDS011;53546;52.184;5.596;2023-02-15T11:13:45;9.80;;;6.72;;
66633;SDS011;53546;52.184;5.596;2023-02-15T11:16:17;10.05;;;6.07;;
66633;SDS011;53546;52.184;5.596;2023-02-15T11:18:48;8.95;;;6.05;;
66633;SDS011;53546;52.184;5.596;2023-02-15T11:23:51;9.30;;;6.60;;
66633;SDS011;53546;52.184;5.596;2023-02-15T11:26:32;7.90;;;5.80;;
66633;SDS011;53546;52.184;5.596;2023-02-15T11:31:29;9.07;;;6.38;;
66633;SDS011;53546;52.184;5.596;2023-02-15T11:34:06;9.50;;;6.43;;
66633;SDS011;53546;52.184;5.596;2023-02-15T11:36:40;8.82;;;6.30;;
66633;SDS011;53546;52.184;5.596;2023-02-15T11:39:10;8.15;;;5.78;;
66633;SDS011;53546;52.184;5.596;2023-02-15T11:41:39;8.50;;;6.65;;
66633;SDS011;53546;52.184;5.596;2023-02-15T11:46:43;7.97;;;6.28;;
66633;SDS011;53546;52.184;5.596;2023-02-15T11:49:21;8.00;;;6.28;;
66633;SDS011;53546;52.184;5.596;2023-02-15T11:51:48;8.27;;;6.35;;
66633;SDS011;53546;52.184;5.596;2023-02-15T11:54:17;8.10;;;6.35;;
66633;SDS011;53546;52.184;5.596;2023-02-15T11:56:47;9.02;;;6.30;;
66633;SDS011;53546;52.184;5.596;2023-02-15T11:59:14;7.72;;;6.18;;
66633;SDS011;53546;52.184;5.596;2023-02-15T12:01:45;8.20;;;5.78;;
66633;SDS011;53546;52.184;5.596;2023-02-15T12:12:35;8.60;;;5.30;;
66633;SDS011;53546;52.184;5.596;2023-02-15T12:15:02;7.18;;;5.65;;
66633;SDS011;53546;52.184;5.596;2023-02-15T12:17:31;8.02;;;6.03;;
66633;SDS011;53546;52.184;5.596;2023-02-15T12:20:03;7.78;;;6.03;;
66633;SDS011;53546;52.184;5.596;2023-02-15T12:22:33;10.60;;;6.32;;
66633;SDS011;53546;52.184;5.596;2023-02-15T12:25:02;9.05;;;5.80;;
66633;SDS011;53546;52.184;5.596;2023-02-15T12:27:30;10.23;;;6.13;;
66633;SDS011;53546;52.184;5.596;2023-02-15T12:30:01;9.73;;;6.50;;
66633;SDS011;53546;52.184;5.596;2023-02-15T12:32:34;9.52;;;6.50;;
66633;SDS011;53546;52.184;5.596;2023-02-15T12:37:39;8.05;;;6.28;;
66633;SDS011;53546;52.184;5.596;2023-02-15T12:42:46;12.05;;;6.57;;
66633;SDS011;53546;52.184;5.596;2023-02-15T12:45:29;8.15;;;6.18;;
66633;SDS011;53546;52.184;5.596;2023-02-15T12:50:47;8.25;;;6.32;;
66633;SDS011;53546;52.184;5.596;2023-02-15T12:58:19;8.50;;;5.93;;
66633;SDS011;53546;52.184;5.596;2023-02-15T13:00:47;6.18;;;5.13;;
66633;SDS011;53546;52.184;5.596;2023-02-15T13:03:16;6.75;;;4.97;;
66633;SDS011;53546;52.184;5.596;2023-02-15T13:05:44;13.95;;;5.53;;
66633;SDS011;53546;52.184;5.596;2023-02-15T13:11:00;10.50;;;5.18;;
66633;SDS011;53546;52.184;5.596;2023-02-15T13:13:29;9.27;;;5.50;;
66633;SDS011;53546;52.184;5.596;2023-02-15T13:15:59;7.82;;;5.00;;
66633;SDS011;53546;52.184;5.596;2023-02-15T13:20:58;7.25;;;5.43;;
66633;SDS011;53546;52.184;5.596;2023-02-15T13:23:29;9.48;;;5.65;;
66633;SDS011;53546;52.184;5.596;2023-02-15T13:25:55;12.13;;;6.00;;
66633;SDS011;53546;52.184;5.596;2023-02-15T13:28:25;13.18;;;5.50;;
66633;SDS011;53546;52.184;5.596;2023-02-15T13:30:57;10.65;;;5.10;;
66633;SDS011;53546;52.184;5.596;2023-02-15T13:36:08;6.70;;;5.03;;
66633;SDS011;53546;52.184;5.596;2023-02-15T13:44:12;10.93;;;5.43;;
66633;SDS011;53546;52.184;5.596;2023-02-15T13:49:45;9.00;;;5.10;;
66633;SDS011;53546;52.184;5.596;2023-02-15T13:55:06;8.88;;;5.15;;
66633;SDS011;53546;52.184;5.596;2023-02-15T13:57:51;5.80;;;4.78;;
66633;SDS011;53546;52.184;5.596;2023-02-15T14:00:44;8.25;;;5.47;;
66633;SDS011;53546;52.184;5.596;2023-02-15T14:06:23;6.30;;;5.07;;
66633;SDS011;53546;52.184;5.596;2023-02-15T14:11:55;7.60;;;4.70;;
66633;SDS011;53546;52.184;5.596;2023-02-15T14:17:19;7.28;;;5.50;;
66633;SDS011;53546;52.184;5.596;2023-02-15T14:20:01;8.15;;;5.32;;
66633;SDS011;53546;52.184;5.596;2023-02-15T14:22:43;8.30;;;5.68;;
66633;SDS011;53546;52.184;5.596;2023-02-15T14:25:25;9.45;;;5.28;;
66633;SDS011;53546;52.184;5.596;2023-02-15T14:28:51;8.57;;;5.80;;
66633;SDS011;53546;52.184;5.596;2023-02-15T14:31:35;8.27;;;6.07;;
66633;SDS011;53546;52.184;5.596;2023-02-15T14:34:04;10.05;;;5.97;;
66633;SDS011;53546;52.184;5.596;2023-02-15T14:36:31;10.80;;;6.30;;
66633;SDS011;53546;52.184;5.596;2023-02-15T14:41:59;9.70;;;6.60;;
66633;SDS011;53546;52.184;5.596;2023-02-15T14:44:37;8.20;;;5.97;;
66633;SDS011;53546;52.184;5.596;2023-02-15T14:47:10;11.45;;;6.40;;
66633;SDS011;53546;52.184;5.596;2023-02-15T14:49:42;9.95;;;6.25;;
66633;SDS011;53546;52.184;5.596;2023-02-15T14:52:08;15.93;;;6.97;;
66633;SDS011;53546;52.184;5.596;2023-02-15T14:59:29;9.05;;;6.60;;
66633;SDS011;53546;52.184;5.596;2023-02-15T15:02:10;10.38;;;6.43;;
66633;SDS011;53546;52.184;5.596;2023-02-15T15:04:43;14.57;;;7.82;;
66633;SDS011;53546;52.184;5.596;2023-02-15T15:15:11;10.13;;;6.53;;
66633;SDS011;53546;52.184;5.596;2023-02-15T15:18:00;8.98;;;6.28;;
66633;SDS011;53546;52.184;5.596;2023-02-15T15:25:40;10.25;;;6.75;;
66633;SDS011;53546;52.184;5.596;2023-02-15T15:31:08;9.38;;;6.70;;
66633;SDS011;53546;52.184;5.596;2023-02-15T15:36:23;9.43;;;6.07;;
66633;SDS011;53546;52.184;5.596;2023-02-15T15:39:20;12.10;;;6.18;;
66633;SDS011;53546;52.184;5.596;2023-02-15T15:50:32;11.57;;;6.15;;
66633;SDS011;53546;52.184;5.596;2023-02-15T15:52:58;10.45;;;6.28;;
66633;SDS011;53546;52.184;5.596;2023-02-15T15:55:30;8.98;;;6.00;;
66633;SDS011;53546;52.184;5.596;2023-02-15T15:58:02;7.35;;;5.57;;
66633;SDS011;53546;52.184;5.596;2023-02-15T16:03:16;8.35;;;5.97;;
66633;SDS011;53546;52.184;5.596;2023-02-15T16:05:46;10.25;;;6.55;;
66633;SDS011;53546;52.184;5.596;2023-02-15T16:08:13;8.90;;;6.55;;
66633;SDS011;53546;52.184;5.596;2023-02-15T16:10:39;13.90;;;6.93;;
66633;SDS011;53546;52.184;5.596;2023-02-15T16:13:06;9.82;;;6.68;;
66633;SDS011;53546;52.184;5.596;2023-02-15T16:15:36;10.30;;;6.60;;
66633;SDS011;53546;52.184;5.596;2023-02-15T16:18:10;8.70;;;6.40;;
66633;SDS011;53546;52.184;5.596;2023-02-15T16:20:39;9.98;;;6.53;;
66633;SDS011;53546;52.184;5.596;2023-02-15T16:28:32;9.18;;;6.05;;
66633;SDS011;53546;52.184;5.596;2023-02-15T16:31:07;9.00;;;6.05;;
66633;SDS011;53546;52.184;5.596;2023-02-15T16:33:38;8.18;;;6.32;;
66633;SDS011;53546;52.184;5.596;2023-02-15T16:36:04;11.00;;;6.60;;
66633;SDS011;53546;52.184;5.596;2023-02-15T16:41:07;12.75;;;6.57;;
66633;SDS011;53546;52.184;5.596;2023-02-15T16:43:34;8.57;;;6.40;;
66633;SDS011;53546;52.184;5.596;2023-02-15T16:46:03;10.07;;;6.88;;
66633;SDS011;53546;52.184;5.596;2023-02-15T16:48:31;9.20;;;6.53;;
66633;SDS011;53546;52.184;5.596;2023-02-15T16:50:58;8.25;;;6.35;;
66633;SDS011;53546;52.184;5.596;2023-02-15T16:53:27;10.68;;;6.22;;
66633;SDS011;53546;52.184;5.596;2023-02-15T16:55:55;8.40;;;6.85;;
66633;SDS011;53546;52.184;5.596;2023-02-15T17:00:56;7.95;;;6.28;;
66633;SDS011;53546;52.184;5.596;2023-02-15T17:03:23;9.27;;;6.65;;
66633;SDS011;53546;52.184;5.596;2023-02-15T17:05:59;8.30;;;6.25;;
66633;SDS011;53546;52.184;5.596;2023-02-15T17:08:27;9.38;;;6.75;;
66633;SDS011;53546;52.184;5.596;2023-02-15T17:13:37;8.68;;;6.72;;
66633;SDS011;53546;52.184;5.596;2023-02-15T17:21:40;11.90;;;7.30;;
66633;SDS011;53546;52.184;5.596;2023-02-15T17:23:57;10.02;;;6.38;;
66633;SDS011;53546;52.184;5.596;2023-02-15T17:26:34;10.75;;;7.65;;
66633;SDS011;53546;52.184;5.596;2023-02-15T17:31:48;17.35;;;8.77;;
66633;SDS011;53546;52.184;5.596;2023-02-15T17:37:11;13.77;;;8.60;;
66633;SDS011;53546;52.184;5.596;2023-02-15T17:39:58;13.55;;;8.90;;
66633;SDS011;53546;52.184;5.596;2023-02-15T17:42:25;16.08;;;8.63;;
66633;SDS011;53546;52.184;5.596;2023-02-15T17:44:50;14.88;;;8.80;;
66633;SDS011;53546;52.184;5.596;2023-02-15T17:47:17;11.20;;;7.60;;
66633;SDS011;53546;52.184;5.596;2023-02-15T17:49:44;14.75;;;8.13;;
66633;SDS011;53546;52.184;5.596;2023-02-15T17:52:11;14.60;;;7.90;;
66633;SDS011;53546;52.184;5.596;2023-02-15T17:54:38;14.13;;;8.65;;
66633;SDS011;53546;52.184;5.596;2023-02-15T17:57:22;11.48;;;8.07;;
66633;SDS011;53546;52.184;5.596;2023-02-15T17:59:48;14.73;;;8.60;;
66633;SDS011;53546;52.184;5.596;2023-02-15T18:05:17;15.50;;;8.30;;
66633;SDS011;53546;52.184;5.596;2023-02-15T18:08:01;16.13;;;8.18;;
66633;SDS011;53546;52.184;5.596;2023-02-15T18:10:45;12.65;;;8.77;;
66633;SDS011;53546;52.184;5.596;2023-02-15T18:15:54;14.03;;;8.40;;
66633;SDS011;53546;52.184;5.596;2023-02-15T18:18:20;16.52;;;9.13;;
66633;SDS011;53546;52.184;5.596;2023-02-15T18:20:46;13.48;;;8.85;;
66633;SDS011;53546;52.184;5.596;2023-02-15T18:23:13;12.48;;;8.45;;
66633;SDS011;53546;52.184;5.596;2023-02-15T18:25:39;14.05;;;8.45;;
66633;SDS011;53546;52.184;5.596;2023-02-15T18:28:04;13.55;;;8.85;;
66633;SDS011;53546;52.184;5.596;2023-02-15T18:30:30;13.80;;;9.35;;
66633;SDS011;53546;52.184;5.596;2023-02-15T18:32:57;14.23;;;9.13;;
66633;SDS011;53546;52.184;5.596;2023-02-15T18:35:24;13.18;;;9.27;;
66633;SDS011;53546;52.184;5.596;2023-02-15T18:37:51;15.93;;;9.32;;
66633;SDS011;53546;52.184;5.596;2023-02-15T18:40:21;12.15;;;8.55;;
66633;SDS011;53546;52.184;5.596;2023-02-15T18:42:47;13.93;;;9.23;;
66633;SDS011;53546;52.184;5.596;2023-02-15T18:47:46;17.58;;;8.88;;
66633;SDS011;53546;52.184;5.596;2023-02-15T18:50:16;11.32;;;8.55;;